Time;durP1;ratioP1;P1;durP2;ratioP2;P2;SDS_P1;SDS_P2;PMS_P1;PMS_P2;Temp;Humidity;BMP_temperature;BMP_pressure;BME280_temperature;BME280_humidity;BME280_pressure;Samples;Min_cycle;Max_cycle;Signal;HPM_P1;HPM_P2
2022/07/15 00:01:41;;;;;;;8.48;3.67;;;;;;;14.78;100.00;101886.47;5044323;28;20056;-79
2022/07/15 00:04:07;;;;;;;10.25;3.55;;;;;;;14.86;100.00;101884.00;5042981;28;20049;-79
2022/07/15 00:06:33;;;;;;;11.35;3.42;;;;;;;14.72;100.00;101886.09;5024900;28;20835;-78
2022/07/15 00:08:58;;;;;;;9.73;3.00;;;;;;;14.69;100.00;101881.69;5035789;28;20390;-78
2022/07/15 00:11:24;;;;;;;14.30;3.88;;;;;;;14.53;100.00;101877.41;5044382;28;20157;-78
2022/07/15 00:13:49;;;;;;;12.35;3.50;;;;;;;14.60;100.00;101883.31;5057796;28;20040;-79
2022/07/15 00:16:15;;;;;;;13.77;3.60;;;;;;;14.48;100.00;101895.31;5046677;28;20074;-79
2022/07/15 00:18:41;;;;;;;12.77;3.70;;;;;;;14.58;100.00;101889.94;5036722;28;20488;-78
2022/07/15 00:21:07;;;;;;;7.30;3.17;;;;;;;14.43;100.00;101881.88;5039346;28;20037;-79
2022/07/15 00:23:32;;;;;;;12.30;3.50;;;;;;;14.30;100.00;101883.88;5023235;28;20067;-79
2022/07/15 00:25:58;;;;;;;10.77;3.33;;;;;;;14.39;100.00;101883.13;5037209;28;20040;-79
2022/07/15 00:28:24;;;;;;;10.63;3.75;;;;;;;14.36;100.00;101882.50;5039287;28;20030;-78
2022/07/15 00:30:50;;;;;;;12.02;3.78;;;;;;;14.31;100.00;101888.34;5021905;28;20519;-79
2022/07/15 00:33:15;;;;;;;14.88;4.20;;;;;;;14.21;100.00;101882.69;5032596;28;20084;-79
2022/07/15 00:35:41;;;;;;;16.02;3.65;;;;;;;14.21;100.00;101884.56;5036650;28;20029;-79
2022/07/15 00:38:09;;;;;;;12.43;3.80;;;;;;;14.10;100.00;101883.53;5046383;28;20148;-79
2022/07/15 00:40:46;;;;;;;11.10;3.80;;;;;;;14.10;100.00;101896.41;5039539;28;20432;-79
2022/07/15 00:43:12;;;;;;;7.70;3.20;;;;;;;14.03;100.00;101892.38;5055034;28;20037;-79
2022/07/15 00:45:38;;;;;;;10.40;3.33;;;;;;;14.04;100.00;101886.75;5020016;28;20028;-79
2022/07/15 00:48:04;;;;;;;10.52;3.35;;;;;;;13.92;100.00;101894.09;5052240;28;20038;-79
2022/07/15 00:50:31;;;;;;;11.90;3.45;;;;;;;13.92;100.00;101888.59;5021884;28;20030;-79
2022/07/15 00:53:22;;;;;;;9.38;2.67;;;;;;;13.85;100.00;101876.28;5054379;28;20066;-79
2022/07/15 00:55:52;;;;;;;8.50;3.15;;;;;;;13.78;100.00;101881.38;5038499;28;20025;-79
2022/07/15 00:58:23;;;;;;;14.77;4.05;;;;;;;13.79;100.00;101882.28;5036705;28;20064;-79
2022/07/15 01:00:50;;;;;;;17.80;3.80;;;;;;;13.73;100.00;101871.72;5049452;28;20488;-79
2022/07/15 01:03:19;;;;;;;15.80;3.35;;;;;;;13.75;100.00;101881.59;5053165;28;20037;-79
2022/07/15 01:05:46;;;;;;;12.77;3.50;;;;;;;13.71;100.00;101887.47;5032036;28;20159;-79
2022/07/15 01:08:12;;;;;;;8.95;3.63;;;;;;;13.60;100.00;101889.16;5050637;28;20044;-79
2022/07/15 01:10:39;;;;;;;9.75;3.10;;;;;;;13.70;100.00;101880.22;5051814;28;20118;-78
2022/07/15 01:13:04;;;;;;;16.00;3.42;;;;;;;13.67;100.00;101880.44;5021069;28;20485;-79
2022/07/15 01:15:32;;;;;;;13.65;3.58;;;;;;;13.65;100.00;101886.06;5047291;28;20036;-78
2022/07/15 01:18:00;;;;;;;9.57;3.58;;;;;;;13.58;100.00;101885.66;5043250;28;20190;-79
2022/07/15 01:20:25;;;;;;;12.00;3.63;;;;;;;13.38;100.00;101862.38;5028194;28;20029;-79
2022/07/15 01:22:51;;;;;;;17.38;5.20;;;;;;;13.51;100.00;101883.47;5023184;28;20062;-79
2022/07/15 01:25:16;;;;;;;15.07;4.30;;;;;;;13.42;100.00;101874.91;5030693;28;20083;-79
2022/07/15 01:27:42;;;;;;;7.40;3.35;;;;;;;13.37;100.00;101882.63;5031815;28;20432;-78
2022/07/15 01:30:08;;;;;;;14.90;4.60;;;;;;;13.34;100.00;101876.47;5029113;28;20130;-79
2022/07/15 01:32:34;;;;;;;9.82;3.83;;;;;;;13.31;100.00;101882.19;5054892;28;20039;-79
2022/07/15 01:35:00;;;;;;;15.88;4.22;;;;;;;13.40;100.00;101876.91;5039228;28;20037;-79
2022/07/15 01:37:25;;;;;;;13.23;3.72;;;;;;;13.37;100.00;101876.25;5009222;28;20064;-79
2022/07/15 01:39:51;;;;;;;16.30;3.90;;;;;;;13.30;100.00;101875.81;5036115;28;20033;-79
2022/07/15 01:42:17;;;;;;;5.93;3.55;;;;;;;13.26;100.00;101881.63;5048167;28;20037;-79
2022/07/15 01:44:43;;;;;;;20.55;4.32;;;;;;;13.16;100.00;101887.81;5041051;28;20063;-79
2022/07/15 01:47:08;;;;;;;13.55;4.50;;;;;;;13.16;100.00;101881.44;5051464;28;20053;-79
2022/07/15 01:49:34;;;;;;;14.00;4.30;;;;;;;13.18;100.00;101887.69;5030896;28;20571;-78
2022/07/15 01:52:01;;;;;;;16.23;5.57;;;;;;;13.23;100.00;101891.88;5049375;28;20043;-78
2022/07/15 01:54:28;;;;;;;14.30;4.22;;;;;;;13.18;100.00;101887.69;5041066;28;20064;-79
2022/07/15 01:56:54;;;;;;;17.10;4.60;;;;;;;13.09;100.00;101897.50;5035986;28;20481;-79
2022/07/15 01:59:22;;;;;;;12.40;4.15;;;;;;;13.19;100.00;101904.09;5019936;28;20052;-79
2022/07/15 02:01:48;;;;;;;20.50;4.80;;;;;;;13.14;100.00;101897.19;5047854;28;20040;-78
2022/07/15 02:04:14;;;;;;;15.00;5.32;;;;;;;13.08;100.00;101898.50;5046177;28;20488;-79
2022/07/15 02:06:41;;;;;;;13.63;4.53;;;;;;;13.27;100.00;101889.78;5052470;28;20044;-79
2022/07/15 02:09:08;;;;;;;19.15;6.47;;;;;;;13.16;100.00;101893.31;5041172;28;20045;-79
2022/07/15 02:11:34;;;;;;;17.13;4.72;;;;;;;13.20;100.00;101897.59;5045680;28;20120;-79
2022/07/15 02:14:01;;;;;;;17.42;5.13;;;;;;;13.08;100.00;101886.63;5034454;28;20156;-79
2022/07/15 02:16:30;;;;;;;22.02;6.05;;;;;;;13.17;100.00;101883.22;5046079;28;20441;-78
2022/07/15 02:18:57;;;;;;;18.58;5.40;;;;;;;13.06;100.00;101895.84;5028440;28;20477;-78
2022/07/15 02:21:24;;;;;;;21.67;5.60;;;;;;;13.00;100.00;101892.69;5039450;28;20022;-79
2022/07/15 02:23:49;;;;;;;21.13;5.28;;;;;;;12.93;100.00;101895.00;5014852;28;20045;-77
2022/07/15 02:26:15;;;;;;;15.68;5.28;;;;;;;12.94;100.00;101894.00;5039142;28;20501;-79
2022/07/15 02:28:41;;;;;;;14.68;4.85;;;;;;;12.89;100.00;101898.97;5045470;28;20488;-78
2022/07/15 02:31:06;;;;;;;14.52;5.30;;;;;;;12.99;100.00;101894.56;5037481;28;20041;-79
2022/07/15 02:33:32;;;;;;;22.52;5.78;;;;;;;12.80;100.00;101891.38;5044463;28;20120;-79
2022/07/15 02:35:58;;;;;;;24.10;5.43;;;;;;;12.94;100.00;101896.75;5042069;28;20159;-79
2022/07/15 02:38:23;;;;;;;17.73;5.20;;;;;;;12.93;100.00;101896.88;5017888;28;20049;-79
2022/07/15 02:40:49;;;;;;;14.77;6.15;;;;;;;12.86;100.00;101891.81;5034117;28;20473;-78
2022/07/15 02:43:14;;;;;;;17.40;5.40;;;;;;;12.90;100.00;101895.22;5050390;28;20035;-78
2022/07/15 02:45:41;;;;;;;15.13;5.05;;;;;;;12.81;100.00;101891.25;5027692;28;20044;-79
2022/07/15 02:48:07;;;;;;;13.60;5.28;;;;;;;12.82;100.00;101883.91;5050724;28;20040;-79
2022/07/15 02:50:33;;;;;;;20.45;4.60;;;;;;;12.73;100.00;101901.06;5047763;28;20026;-78
2022/07/15 02:53:01;;;;;;;12.90;5.13;;;;;;;12.72;100.00;101899.28;5036909;28;20068;-79
2022/07/15 02:55:26;;;;;;;18.25;6.07;;;;;;;12.72;100.00;101902.91;5034758;28;20037;-79
2022/07/15 02:57:52;;;;;;;18.00;5.30;;;;;;;12.76;100.00;101909.09;5031752;28;20362;-78
2022/07/15 03:00:19;;;;;;;10.95;5.40;;;;;;;12.67;100.00;101916.09;5028500;28;20044;-79
2022/07/15 03:02:46;;;;;;;14.80;5.45;;;;;;;12.61;100.00;101903.69;5035251;28;20053;-79
2022/07/15 03:05:12;;;;;;;13.43;6.30;;;;;;;12.62;100.00;101913.69;5052914;28;20048;-78
2022/07/15 03:07:39;;;;;;;18.58;6.03;;;;;;;12.54;100.00;101920.72;5037627;28;20501;-78
2022/07/15 03:10:06;;;;;;;19.20;6.18;;;;;;;12.50;100.00;101925.53;5062923;28;20033;-79
2022/07/15 03:12:32;;;;;;;20.98;5.78;;;;;;;12.55;100.00;101927.97;5034324;28;20092;-78
2022/07/15 03:14:59;;;;;;;14.80;5.65;;;;;;;12.56;100.00;101927.88;5041825;28;20029;-80
2022/07/15 03:17:24;;;;;;;25.98;5.60;;;;;;;12.52;100.00;101929.06;5025012;28;20435;-79
2022/07/15 03:19:50;;;;;;;17.75;5.50;;;;;;;12.46;100.00;101934.97;5021030;28;20091;-79
2022/07/15 03:22:15;;;;;;;20.98;6.85;;;;;;;12.38;100.00;101934.63;5012311;28;20037;-77
2022/07/15 03:24:41;;;;;;;13.75;5.63;;;;;;;12.39;100.00;101937.28;5044758;28;20097;-78
2022/07/15 03:27:08;;;;;;;17.40;5.78;;;;;;;12.38;100.00;101940.13;5047538;28;20093;-78
2022/07/15 03:29:34;;;;;;;19.90;5.97;;;;;;;12.34;100.00;101933.97;5045557;28;20037;-78
2022/07/15 03:31:59;;;;;;;17.50;5.68;;;;;;;12.35;100.00;101941.22;5045361;28;20037;-78
2022/07/15 03:34:25;;;;;;;18.48;5.57;;;;;;;12.41;100.00;101943.56;5046385;28;20085;-78
2022/07/15 03:36:51;;;;;;;14.80;6.38;;;;;;;12.48;100.00;101941.25;5020860;28;20080;-78
2022/07/15 03:39:17;;;;;;;20.48;6.60;;;;;;;12.45;100.00;101949.72;5037241;28;20032;-78
2022/07/15 03:41:42;;;;;;;14.55;5.90;;;;;;;12.46;100.00;101956.94;5038631;28;20037;-78
2022/07/15 03:44:08;;;;;;;18.08;5.45;;;;;;;12.56;100.00;101949.84;5048317;28;20043;-79
2022/07/15 03:46:33;;;;;;;18.73;6.00;;;;;;;12.43;100.00;101949.81;5040348;28;20033;-78
2022/07/15 03:49:00;;;;;;;18.58;6.97;;;;;;;12.42;100.00;101960.91;5022541;28;20393;-78
2022/07/15 03:51:30;;;;;;;17.65;6.10;;;;;;;12.47;100.00;101947.72;5043501;28;20369;-79
2022/07/15 03:54:01;;;;;;;19.73;6.15;;;;;;;12.57;100.00;101961.72;5043084;28;20045;-78
2022/07/15 03:56:28;;;;;;;21.13;6.72;;;;;;;12.49;100.00;101970.47;5034919;28;20025;-78
2022/07/15 03:58:54;;;;;;;22.33;5.82;;;;;;;12.65;100.00;101970.28;5038161;28;20041;-79
2022/07/15 04:01:20;;;;;;;20.30;5.88;;;;;;;12.57;100.00;101976.31;5018822;28;20123;-79
2022/07/15 04:03:48;;;;;;;13.98;5.72;;;;;;;12.78;100.00;101962.94;5036690;28;20195;-79
2022/07/15 04:06:14;;;;;;;15.27;6.03;;;;;;;12.66;100.00;101972.06;5051759;28;20037;-79
2022/07/15 04:08:40;;;;;;;17.23;6.45;;;;;;;12.73;100.00;101978.00;5034625;28;20033;-79
2022/07/15 04:11:06;;;;;;;30.92;5.75;;;;;;;12.76;100.00;101978.66;5011335;28;20045;-79
2022/07/15 04:13:31;;;;;;;19.75;5.97;;;;;;;12.83;100.00;101970.88;5036229;28;20088;-79
2022/07/15 04:15:57;;;;;;;12.40;5.13;;;;;;;12.88;100.00;101969.53;5017840;28;20480;-79
2022/07/15 04:18:23;;;;;;;23.10;6.78;;;;;;;12.91;100.00;101973.09;4998828;28;20025;-80
2022/07/15 04:20:48;;;;;;;26.10;5.50;;;;;;;12.93;100.00;101980.22;5043760;28;20492;-79
2022/07/15 04:23:14;;;;;;;18.33;5.57;;;;;;;13.12;100.00;101973.38;5050720;28;20039;-79
2022/07/15 04:25:40;;;;;;;16.40;5.93;;;;;;;13.18;100.00;101981.19;5026443;28;20049;-80
2022/07/15 04:28:05;;;;;;;23.60;6.10;;;;;;;13.15;100.00;101974.06;5054834;28;20044;-77
2022/07/15 04:30:31;;;;;;;27.33;6.75;;;;;;;13.30;100.00;101977.56;5051373;28;20163;-77
2022/07/15 04:32:57;;;;;;;16.02;6.38;;;;;;;13.31;100.00;101982.06;5039295;28;20037;-77
2022/07/15 04:35:22;;;;;;;18.67;6.90;;;;;;;13.49;100.00;101984.50;5036758;28;20036;-77
2022/07/15 04:37:48;;;;;;;21.95;6.03;;;;;;;13.38;100.00;101972.44;5019743;28;20053;-77
2022/07/15 04:40:13;;;;;;;20.98;5.22;;;;;;;13.55;100.00;101978.56;5031977;28;20111;-77
2022/07/15 04:42:39;;;;;;;15.75;5.18;;;;;;;13.74;100.00;101984.47;5024591;28;20033;-78
2022/07/15 04:45:05;;;;;;;18.52;5.25;;;;;;;13.80;100.00;101980.34;5035636;28;20094;-77
2022/07/15 04:47:31;;;;;;;16.92;5.10;;;;;;;13.81;100.00;101983.97;5046723;28;20037;-77
2022/07/15 04:52:45;;;;;;;20.60;5.88;;;;;;;14.12;100.00;101983.44;5056680;28;20044;-77
2022/07/15 04:55:11;;;;;;;13.90;5.05;;;;;;;14.23;100.00;101990.00;5051918;28;20025;-77
2022/07/15 04:57:36;;;;;;;19.33;5.43;;;;;;;13.99;100.00;101988.13;5026930;28;20144;-77
2022/07/15 05:00:03;;;;;;;19.10;5.82;;;;;;;14.00;100.00;101986.25;5043462;28;20366;-77
2022/07/15 05:02:29;;;;;;;20.95;6.57;;;;;;;14.12;100.00;101986.19;5041157;28;20418;-77
2022/07/15 05:04:54;;;;;;;18.52;5.25;;;;;;;14.31;100.00;101990.28;5026931;28;20037;-79
2022/07/15 05:07:20;;;;;;;23.17;4.95;;;;;;;14.19;100.00;101981.09;5008143;28;20093;-79
2022/07/15 05:09:45;;;;;;;17.40;5.18;;;;;;;14.35;100.00;101989.06;5022297;28;20037;-79
2022/07/15 05:12:11;;;;;;;21.38;5.25;;;;;;;14.36;100.00;101978.91;5047930;28;20041;-78
2022/07/15 05:14:40;;;;;;;12.65;4.25;;;;;;;14.35;100.00;101983.56;5053452;28;20100;-79
2022/07/15 05:17:06;;;;;;;17.30;4.55;;;;;;;14.20;100.00;101982.88;5036478;28;20029;-78
2022/07/15 05:19:32;;;;;;;19.00;5.25;;;;;;;14.18;100.00;101983.97;5037475;28;20041;-79
2022/07/15 05:21:58;;;;;;;28.60;5.55;;;;;;;14.15;100.00;101985.97;5034128;28;20038;-79
2022/07/15 05:24:23;;;;;;;17.58;4.90;;;;;;;14.13;100.00;101985.22;5036964;28;20409;-80
2022/07/15 05:26:49;;;;;;;20.33;4.47;;;;;;;14.28;100.00;101990.53;5061255;28;20032;-80
2022/07/15 05:29:14;;;;;;;17.45;4.45;;;;;;;14.31;100.00;101993.03;5043524;28;20042;-79
2022/07/15 05:31:40;;;;;;;15.93;4.95;;;;;;;14.24;100.00;101989.00;5019381;28;20038;-79
2022/07/15 05:34:06;;;;;;;16.65;4.82;;;;;;;14.43;100.00;101986.59;5033610;28;20033;-79
2022/07/15 05:36:32;;;;;;;22.40;5.22;;;;;;;14.86;100.00;101986.00;5055884;28;20037;-79
2022/07/15 05:38:58;;;;;;;27.25;5.95;;;;;;;15.26;100.00;101992.97;5045876;28;20512;-79
2022/07/15 05:41:23;;;;;;;15.23;4.07;;;;;;;15.42;100.00;101993.47;5053381;28;20029;-79
2022/07/15 05:43:48;;;;;;;11.65;4.00;;;;;;;15.66;100.00;101986.06;5034208;28;20041;-80
2022/07/15 05:46:14;;;;;;;10.57;3.45;;;;;;;16.14;100.00;101992.16;5043897;28;20116;-79
2022/07/15 05:48:41;;;;;;;9.70;4.05;;;;;;;15.89;100.00;101986.94;5045655;28;20039;-79
2022/07/15 05:51:07;;;;;;;14.27;3.92;;;;;;;16.06;100.00;101980.03;5036457;28;20056;-79
2022/07/15 05:53:32;;;;;;;11.82;3.95;;;;;;;15.95;100.00;101983.69;5025930;28;20079;-80
2022/07/15 05:55:58;;;;;;;13.32;4.07;;;;;;;16.30;100.00;101986.22;5035428;28;20025;-80
2022/07/15 05:58:24;;;;;;;17.20;3.35;;;;;;;16.37;100.00;101989.34;5038993;28;20065;-80
2022/07/15 06:00:51;;;;;;;12.45;3.63;;;;;;;16.46;100.00;101983.03;5023374;28;20065;-79
2022/07/15 06:03:17;;;;;;;9.48;3.28;;;;;;;16.54;100.00;101982.34;5036182;28;20031;-80
2022/07/15 06:05:42;;;;;;;17.30;3.58;;;;;;;17.18;100.00;101975.81;5051100;28;20107;-79
2022/07/15 06:08:08;;;;;;;9.45;3.80;;;;;;;17.49;100.00;101983.28;5048599;28;20417;-79
2022/07/15 06:10:34;;;;;;;13.43;3.47;;;;;;;17.45;100.00;101977.13;5029470;28;20099;-77
2022/07/15 06:13:00;;;;;;;10.27;2.97;;;;;;;17.89;100.00;101986.09;5038486;28;20044;-79
2022/07/15 06:15:26;;;;;;;15.90;3.33;;;;;;;17.90;100.00;101984.19;5037274;28;20032;-78
2022/07/15 06:17:53;;;;;;;11.45;3.30;;;;;;;18.58;100.00;101988.91;5044038;28;20067;-77
2022/07/15 06:20:19;;;;;;;13.77;3.22;;;;;;;19.18;100.00;101991.50;5021100;28;20043;-77
2022/07/15 06:22:45;;;;;;;12.32;2.90;;;;;;;18.48;100.00;101991.69;5014814;28;20132;-77
2022/07/15 06:25:11;;;;;;;12.45;2.80;;;;;;;18.43;100.00;101994.03;5046390;28;20041;-77
2022/07/15 06:27:37;;;;;;;17.65;3.45;;;;;;;18.42;100.00;101989.53;5036278;28;20037;-77
2022/07/15 06:30:04;;;;;;;13.98;2.85;;;;;;;18.32;100.00;101986.75;5038171;28;20069;-77
2022/07/15 06:32:30;;;;;;;12.43;3.55;;;;;;;18.53;100.00;101992.16;5041918;28;20041;-78
2022/07/15 06:34:55;;;;;;;13.18;3.20;;;;;;;18.46;100.00;101991.88;5044067;28;20500;-78
2022/07/15 06:37:21;;;;;;;15.35;2.70;;;;;;;19.10;100.00;101993.16;5032717;28;20076;-78
2022/07/15 06:39:47;;;;;;;20.67;2.92;;;;;;;18.74;100.00;101994.75;5033749;28;20033;-78
2022/07/15 06:42:13;;;;;;;11.50;2.50;;;;;;;19.67;100.00;101983.00;5034943;28;20539;-78
2022/07/15 06:44:39;;;;;;;23.17;3.05;;;;;;;20.55;100.00;101977.75;5051322;28;20036;-78
2022/07/15 06:47:06;;;;;;;7.70;1.85;;;;;;;19.78;100.00;101985.63;5038234;28;20045;-77
2022/07/15 06:49:33;;;;;;;12.35;2.33;;;;;;;19.81;100.00;101980.63;5054540;28;20065;-79
2022/07/15 06:51:58;;;;;;;10.00;2.33;;;;;;;19.62;100.00;101981.53;5038974;28;20404;-79
2022/07/15 06:54:25;;;;;;;13.40;1.65;;;;;;;19.90;100.00;101986.28;5042895;28;20036;-78
2022/07/15 06:56:50;;;;;;;7.35;1.13;;;;;;;20.11;98.62;101988.78;5034584;28;20474;-79
2022/07/15 06:59:16;;;;;;;10.20;1.40;;;;;;;20.01;100.00;101980.50;5036748;28;20032;-80
2022/07/15 07:01:41;;;;;;;10.30;1.77;;;;;;;19.82;100.00;101990.72;5034517;28;20064;-80
2022/07/15 07:04:07;;;;;;;8.98;1.83;;;;;;;19.48;100.00;101990.41;5036131;28;20088;-80
2022/07/15 07:06:33;;;;;;;6.10;1.30;;;;;;;20.57;94.90;101993.25;5034859;28;20456;-80
2022/07/15 07:08:58;;;;;;;10.90;1.40;;;;;;;21.49;88.48;101990.19;5018817;28;20036;-80
2022/07/15 07:11:24;;;;;;;14.35;1.50;;;;;;;20.90;91.46;101987.13;5036043;28;20040;-78
2022/07/15 07:13:50;;;;;;;12.82;1.55;;;;;;;20.99;91.66;101990.84;5039101;28;20037;-81
2022/07/15 07:16:16;;;;;;;15.93;1.75;;;;;;;20.83;92.75;101986.91;5036213;28;20052;-80
2022/07/15 07:18:42;;;;;;;6.10;1.65;;;;;;;20.81;91.63;101993.66;5005417;28;20150;-82
2022/07/15 07:21:07;;;;;;;10.05;1.92;;;;;;;21.61;87.66;101990.75;5020176;28;20044;-80
2022/07/15 07:23:34;;;;;;;8.00;1.60;;;;;;;20.84;89.85;101985.00;5019777;28;20040;-78
2022/07/15 07:26:00;;;;;;;9.93;1.60;;;;;;;20.85;91.01;101986.75;5054155;28;20392;-79
2022/07/15 07:28:25;;;;;;;10.18;1.48;;;;;;;21.14;88.08;101985.59;5034599;28;20033;-80
2022/07/15 07:30:54;;;;;;;6.82;1.55;;;;;;;21.27;86.96;101988.81;5030476;28;20037;-81
2022/07/15 07:33:20;;;;;;;5.95;1.70;;;;;;;21.30;84.11;101994.06;5018327;28;20037;-80
2022/07/15 07:35:46;;;;;;;9.05;1.50;;;;;;;21.07;88.04;101988.13;5048772;28;20037;-81
2022/07/15 07:38:12;;;;;;;7.75;1.80;;;;;;;21.99;86.53;102000.53;5035584;28;20057;-80
2022/07/15 07:40:37;;;;;;;11.93;2.10;;;;;;;21.47;87.44;102001.50;5035829;28;20048;-81
2022/07/15 07:43:04;;;;;;;8.82;2.10;;;;;;;21.34;89.74;101987.09;5006285;28;20085;-79
2022/07/15 07:45:29;;;;;;;9.68;1.75;;;;;;;22.13;84.04;101989.75;5037386;28;20396;-80
2022/07/15 07:47:56;;;;;;;10.88;2.25;;;;;;;20.85;88.37;101993.19;5038981;28;20473;-80
2022/07/15 07:50:22;;;;;;;9.88;2.00;;;;;;;20.94;89.50;101999.72;5039485;28;20112;-80
2022/07/15 07:52:48;;;;;;;9.13;1.83;;;;;;;19.70;94.95;101996.59;5030372;28;20033;-80
2022/07/15 07:55:17;;;;;;;10.15;1.90;;;;;;;19.13;100.00;102003.06;5026364;28;20025;-79
2022/07/15 07:57:50;;;;;;;6.10;1.42;;;;;;;18.94;100.00;102005.88;5060155;28;20060;-83
2022/07/15 08:00:16;;;;;;;5.90;1.50;;;;;;;20.44;95.87;102003.03;5054771;28;20412;-81
2022/07/15 08:02:42;;;;;;;9.27;1.40;;;;;;;21.63;88.24;101997.06;5038968;28;20445;-81
2022/07/15 08:05:09;;;;;;;8.85;1.50;;;;;;;21.82;82.87;102007.97;5039450;28;20029;-80
2022/07/15 08:07:35;;;;;;;7.75;1.40;;;;;;;21.36;87.41;102003.66;5038514;28;20057;-81
2022/07/15 08:10:02;;;;;;;9.90;1.50;;;;;;;20.65;89.19;102008.31;5039619;28;20061;-80
2022/07/15 08:12:28;;;;;;;9.15;1.40;;;;;;;20.62;88.63;102003.91;5022543;28;20049;-81
2022/07/15 08:14:54;;;;;;;9.88;1.65;;;;;;;21.08;88.55;102001.88;5039925;28;20060;-81
2022/07/15 08:17:21;;;;;;;8.98;1.27;;;;;;;21.76;84.43;102000.25;5021968;28;20033;-81
2022/07/15 08:19:47;;;;;;;11.52;1.42;;;;;;;21.38;86.29;102008.03;5054664;28;20025;-81
2022/07/15 08:22:14;;;;;;;11.60;1.40;;;;;;;20.84;88.07;102005.38;5053444;28;20033;-80
2022/07/15 08:24:39;;;;;;;10.55;1.23;;;;;;;20.46;89.66;102009.31;5038824;28;20056;-80
2022/07/15 08:27:05;;;;;;;9.35;1.13;;;;;;;20.44;89.37;102011.38;5069151;28;20388;-81
2022/07/15 08:29:31;;;;;;;6.10;1.17;;;;;;;21.18;84.22;102009.28;5078296;28;20086;-81
2022/07/15 08:31:56;;;;;;;4.78;1.10;;;;;;;21.32;82.51;102010.56;5060437;28;20076;-81
2022/07/15 08:34:22;;;;;;;8.85;0.80;;;;;;;21.57;79.21;102008.88;5059070;28;20032;-81
2022/07/15 08:36:48;;;;;;;10.25;1.10;;;;;;;20.71;81.85;102016.91;5059122;28;20033;-81
2022/07/15 08:39:15;;;;;;;8.10;1.33;;;;;;;20.68;83.11;102008.88;5036013;28;20128;-81
2022/07/15 08:41:41;;;;;;;6.15;1.20;;;;;;;20.42;82.79;102016.25;5037519;28;20451;-82
2022/07/15 08:44:07;;;;;;;5.18;0.82;;;;;;;21.54;77.54;102020.34;5036832;28;20124;-81
2022/07/15 08:46:34;;;;;;;5.10;0.90;;;;;;;21.83;73.93;102018.06;5045090;28;20061;-81
2022/07/15 08:49:12;;;;;;;5.63;0.70;;;;;;;21.87;74.18;102010.22;5038429;28;20057;-82
2022/07/15 08:51:42;;;;;;;8.20;1.00;;;;;;;21.14;80.01;102016.22;5038013;28;20029;-80
2022/07/15 08:54:08;;;;;;;5.13;1.05;;;;;;;20.93;78.58;102020.22;5037941;28;20053;-80
2022/07/15 08:56:35;;;;;;;5.75;1.05;;;;;;;21.57;75.87;102017.22;5011837;28;20161;-81
2022/07/15 08:59:01;;;;;;;5.20;1.00;;;;;;;20.75;80.64;102015.53;5050477;28;20036;-80
2022/07/15 09:01:31;;;;;;;6.32;1.00;;;;;;;21.44;78.88;102018.50;5048372;28;20378;-80
2022/07/15 09:03:57;;;;;;;4.95;1.00;;;;;;;21.93;76.42;102005.91;5040336;28;20036;-81
2022/07/15 09:06:37;;;;;;;7.60;1.30;;;;;;;22.39;75.39;102010.06;5038037;28;20115;-81
2022/07/15 09:09:24;;;;;;;12.82;1.15;;;;;;;22.23;70.64;102007.22;5021339;28;20037;-81
2022/07/15 09:12:07;;;;;;;5.70;1.10;;;;;;;23.17;68.05;102012.56;5027444;28;20053;-80
2022/07/15 09:14:37;;;;;;;4.50;0.98;;;;;;;22.52;70.13;102006.78;5038893;28;20033;-80
2022/07/15 09:17:09;;;;;;;7.05;1.05;;;;;;;22.68;70.17;102014.31;5041104;28;20536;-80
2022/07/15 09:20:08;;;;;;;5.93;0.85;;;;;;;22.98;67.20;102005.41;5054526;28;20033;-80
2022/07/15 09:23:00;;;;;;;2.42;0.85;;;;;;;22.58;67.56;101997.72;5039054;28;20032;-80
2022/07/15 09:25:27;;;;;;;7.45;0.90;;;;;;;23.10;63.59;101998.44;5039825;28;20504;-80
2022/07/15 09:27:54;;;;;;;6.07;0.80;;;;;;;22.36;66.73;101995.59;5078754;28;20029;-80
2022/07/15 09:33:39;;;;;;;8.95;1.35;;;;;;;23.83;60.67;101999.34;5041507;28;20041;-80
2022/07/15 09:36:11;;;;;;;5.32;0.85;;;;;;;23.74;59.60;101997.59;5042796;28;20143;-80
2022/07/15 09:38:59;;;;;;;4.15;0.80;;;;;;;23.61;59.78;101999.06;5044706;28;20050;-81
2022/07/15 09:41:37;;;;;;;2.97;0.80;;;;;;;23.65;60.64;101989.22;5053333;28;20165;-80
2022/07/15 09:44:09;;;;;;;2.65;0.80;;;;;;;23.68;59.99;102002.84;5038098;28;20069;-81
2022/07/15 09:46:52;;;;;;;5.05;0.73;;;;;;;23.14;60.01;102005.44;5038535;28;20407;-80
2022/07/15 09:49:32;;;;;;;3.17;0.73;;;;;;;24.32;53.37;102004.69;5036497;28;20030;-81
2022/07/15 09:52:06;;;;;;;4.53;0.80;;;;;;;24.13;56.02;101993.94;5020716;28;20025;-81
2022/07/15 09:54:41;;;;;;;11.00;1.00;;;;;;;24.22;57.68;101992.84;5038850;28;20055;-81
2022/07/15 09:57:09;;;;;;;6.60;0.80;;;;;;;23.96;57.58;101999.63;5039068;28;20032;-81
2022/07/15 09:59:36;;;;;;;2.67;0.88;;;;;;;23.62;58.45;101994.31;5045309;28;20029;-81
2022/07/15 10:02:01;;;;;;;3.53;0.75;;;;;;;24.46;58.15;101993.75;5044006;28;20167;-79
2022/07/15 10:04:28;;;;;;;4.05;0.70;;;;;;;24.27;55.66;101995.97;5058767;28;20092;-80
2022/07/15 10:06:56;;;;;;;7.43;1.08;;;;;;;23.74;59.37;101990.06;5057333;28;20155;-80
2022/07/15 10:09:26;;;;;;;6.47;0.90;;;;;;;24.09;57.18;101990.66;5041665;28;20439;-80
2022/07/15 10:11:56;;;;;;;2.80;0.80;;;;;;;24.74;52.89;101992.16;5057792;28;20881;-82
2022/07/15 10:14:46;;;;;;;8.02;1.08;;;;;;;23.65;56.63;101983.63;5046169;28;20500;-82
2022/07/15 10:17:14;;;;;;;6.70;0.88;;;;;;;24.38;55.87;101984.34;5036860;28;20052;-78
2022/07/15 10:20:00;;;;;;;7.40;1.00;;;;;;;24.78;53.19;101984.25;5019987;28;20040;-78
2022/07/15 10:22:34;;;;;;;2.85;0.60;;;;;;;24.08;55.47;101986.09;5016830;28;20044;-78
2022/07/15 10:25:41;;;;;;;6.38;0.90;;;;;;;24.25;55.83;101974.81;5047385;28;20540;-78
2022/07/15 10:28:19;;;;;;;5.20;0.80;;;;;;;24.87;51.86;101985.91;5037236;28;20029;-78
2022/07/15 10:30:45;;;;;;;4.68;0.80;;;;;;;24.38;52.78;101969.47;5036664;28;20067;-77
2022/07/15 10:33:19;;;;;;;4.00;0.80;;;;;;;24.69;50.98;101972.22;5018806;28;20025;-77
2022/07/15 10:35:53;;;;;;;2.40;0.60;;;;;;;24.64;51.89;101969.13;5036325;28;20026;-77
2022/07/15 10:38:28;;;;;;;2.90;0.70;;;;;;;24.47;51.67;101957.16;5037365;28;20071;-77
2022/07/15 10:41:05;;;;;;;3.22;1.02;;;;;;;23.17;55.00;101960.38;5039680;28;20114;-78
2022/07/15 10:43:37;;;;;;;3.50;0.90;;;;;;;23.68;52.87;101963.72;5019214;28;20037;-78
2022/07/15 10:46:16;;;;;;;3.17;0.70;;;;;;;25.29;49.53;101952.78;5036031;28;20120;-78
2022/07/15 10:49:02;;;;;;;2.20;0.60;;;;;;;24.22;52.88;101957.34;5034784;28;20378;-78
2022/07/15 10:51:37;;;;;;;3.40;0.80;;;;;;;24.41;51.98;101955.09;5046712;28;20044;-79
2022/07/15 10:54:10;;;;;;;5.53;0.75;;;;;;;24.34;51.22;101952.16;5046869;28;20093;-79
2022/07/15 10:56:48;;;;;;;4.88;0.60;;;;;;;24.49;52.77;101955.03;5049160;28;20032;-78
2022/07/15 10:59:16;;;;;;;3.25;0.57;;;;;;;24.50;50.84;101951.19;5018947;28;20394;-79
2022/07/15 11:01:44;;;;;;;2.95;0.80;;;;;;;24.53;50.85;101950.81;5037727;28;20048;-79
2022/07/15 11:04:21;;;;;;;7.50;0.60;;;;;;;25.02;50.71;101945.84;5054530;28;20036;-79
2022/07/15 11:07:02;;;;;;;3.42;0.60;;;;;;;24.82;47.58;101942.72;5040194;28;20037;-78
2022/07/15 11:09:48;;;;;;;1.10;0.52;;;;;;;24.98;45.13;101934.16;5044163;28;20040;-78
2022/07/15 11:12:15;;;;;;;6.68;1.17;;;;;;;24.69;45.26;101929.34;5034136;28;20018;-78
2022/07/15 11:14:52;;;;;;;2.88;0.68;;;;;;;24.77;48.10;101929.28;5018928;28;20041;-78
2022/07/15 11:17:42;;;;;;;5.13;0.70;;;;;;;23.34;50.78;101937.97;5050335;28;20148;-77
2022/07/15 11:20:13;;;;;;;1.42;0.50;;;;;;;23.96;51.47;101935.28;5031284;28;20049;-78
2022/07/15 11:22:44;;;;;;;3.58;0.80;;;;;;;24.68;49.83;101930.44;5048795;28;20060;-78
2022/07/15 11:25:29;;;;;;;6.88;0.90;;;;;;;24.91;47.83;101924.78;5034039;28;20025;-79